createdAt,value
2018-06-25T00:00:40.436Z,11.00
2018-06-25T00:03:09.549Z,11.73
2018-06-25T00:05:38.638Z,11.13
2018-06-25T00:08:07.744Z,10.70
2018-06-25T00:10:36.838Z,11.77
2018-06-25T00:13:06.297Z,11.57
2018-06-25T00:15:35.709Z,10.10
2018-06-25T00:18:05.553Z,9.83
2018-06-25T00:20:34.649Z,9.50
2018-06-25T00:23:03.753Z,9.07
2018-06-25T00:25:32.853Z,10.40
2018-06-25T00:28:01.958Z,11.87
2018-06-25T00:30:31.082Z,9.33
2018-06-25T00:33:00.175Z,11.17
2018-06-25T00:35:29.287Z,7.57
2018-06-25T00:37:58.405Z,12.00
2018-06-25T00:40:27.498Z,11.57
2018-06-25T00:42:58.817Z,11.30
2018-06-25T00:45:28.850Z,11.60
2018-06-25T00:47:58.386Z,7.77
2018-06-25T00:50:27.717Z,7.90
2018-06-25T00:52:56.814Z,11.23
2018-06-25T00:55:25.942Z,9.17
2018-06-25T00:57:55.022Z,9.40
2018-06-25T01:00:24.229Z,7.50
2018-06-25T01:02:53.305Z,8.43
2018-06-25T01:05:22.420Z,6.07
2018-06-25T01:07:51.513Z,6.83
2018-06-25T01:10:20.610Z,8.57
2018-06-25T01:12:49.693Z,11.10
2018-06-25T01:15:18.801Z,10.70
2018-06-25T01:17:47.903Z,10.93
2018-06-25T01:20:17.033Z,12.83
2018-06-25T01:22:46.153Z,13.40
2018-06-25T01:25:15.253Z,12.80
2018-06-25T01:27:44.426Z,13.67
2018-06-25T01:30:13.573Z,13.90
2018-06-25T01:32:42.766Z,14.90
2018-06-25T01:35:11.901Z,15.30
2018-06-25T01:37:41.063Z,15.50
2018-06-25T01:40:10.150Z,15.47
2018-06-25T01:42:39.277Z,15.97
2018-06-25T01:45:08.406Z,13.93
2018-06-25T01:47:37.533Z,16.90
2018-06-25T01:50:06.704Z,16.87
2018-06-25T01:52:35.830Z,18.33
2018-06-25T01:55:04.962Z,16.83
2018-06-25T01:57:34.085Z,17.60
2018-06-25T02:00:03.287Z,17.27
2018-06-25T02:02:33.182Z,17.80
2018-06-25T02:05:02.334Z,18.10
2018-06-25T02:07:31.556Z,20.60
2018-06-25T02:10:00.661Z,15.43
2018-06-25T02:12:29.753Z,14.23
2018-06-25T02:14:58.873Z,15.27
2018-06-25T02:17:28.125Z,13.23
2018-06-25T02:19:57.271Z,13.87
2018-06-25T02:22:26.426Z,13.70
2018-06-25T02:24:55.669Z,12.83
2018-06-25T02:27:24.791Z,11.63
2018-06-25T02:29:55.426Z,13.37
2018-06-25T02:32:24.535Z,13.80
2018-06-25T02:34:53.622Z,13.53
2018-06-25T02:37:22.729Z,14.37
2018-06-25T02:39:51.834Z,12.73
2018-06-25T02:42:20.986Z,14.00
2018-06-25T02:44:50.071Z,13.80
2018-06-25T02:47:19.173Z,13.00
2018-06-25T02:49:48.301Z,12.67
2018-06-25T02:52:17.430Z,15.43
2018-06-25T02:54:46.526Z,13.67
2018-06-25T02:57:15.630Z,14.20
2018-06-25T02:59:44.794Z,12.83
2018-06-25T03:02:13.906Z,18.00
2018-06-25T03:04:43.025Z,14.50
2018-06-25T03:07:12.130Z,15.67
2018-06-25T03:09:41.221Z,15.50
2018-06-25T03:12:10.358Z,16.70
2018-06-25T03:14:39.734Z,14.87
2018-06-25T03:17:08.834Z,13.83
2018-06-25T03:19:37.929Z,17.30
2018-06-25T03:22:07.030Z,17.97
2018-06-25T03:24:36.161Z,16.83
2018-06-25T03:27:05.267Z,15.53
2018-06-25T03:29:34.374Z,16.57
2018-06-25T03:32:03.478Z,15.13
2018-06-25T03:34:32.655Z,16.43
2018-06-25T03:37:01.770Z,15.10
2018-06-25T03:39:30.885Z,13.43
2018-06-25T03:41:59.988Z,16.60
2018-06-25T03:44:29.089Z,14.30
2018-06-25T03:46:58.243Z,14.83
2018-06-25T03:49:27.397Z,12.20
2018-06-25T03:51:56.686Z,14.17
2018-06-25T03:54:26.118Z,14.63
2018-06-25T03:56:55.316Z,14.70
2018-06-25T03:59:24.404Z,13.97
2018-06-25T04:01:53.540Z,13.00
2018-06-25T04:04:22.757Z,13.83
2018-06-25T04:06:51.909Z,12.37
2018-06-25T04:09:20.993Z,15.33
2018-06-25T04:11:50.093Z,19.93
2018-06-25T04:14:19.185Z,16.37
2018-06-25T04:16:48.286Z,16.03
2018-06-25T04:19:17.389Z,16.47
2018-06-25T04:21:47.889Z,15.33
2018-06-25T04:24:17.090Z,13.57
2018-06-25T04:26:46.198Z,16.13
2018-06-25T04:29:15.281Z,16.73
2018-06-25T04:31:44.417Z,12.47
2018-06-25T04:34:13.538Z,15.67
2018-06-25T04:36:42.629Z,17.30
2018-06-25T04:39:11.793Z,15.07
2018-06-25T04:41:46.706Z,14.90
2018-06-25T04:44:15.829Z,16.27
2018-06-25T04:46:44.954Z,16.87
2018-06-25T04:49:14.057Z,15.23
2018-06-25T04:51:43.141Z,17.00
2018-06-25T04:54:12.247Z,16.83
2018-06-25T04:56:41.366Z,16.03
2018-06-25T04:59:10.583Z,17.87
2018-06-25T05:01:39.705Z,14.67
2018-06-25T05:04:08.890Z,15.07
2018-06-25T05:06:38.010Z,17.90
2018-06-25T05:09:08.737Z,16.90
2018-06-25T05:11:37.842Z,16.23
2018-06-25T05:14:06.965Z,13.93
2018-06-25T05:16:36.081Z,16.47
2018-06-25T05:19:05.330Z,18.23
2018-06-25T05:21:34.469Z,14.37
2018-06-25T05:24:03.610Z,16.57
2018-06-25T05:26:32.729Z,16.73
2018-06-25T05:29:01.829Z,13.03
2018-06-25T05:31:30.969Z,14.40
2018-06-25T05:34:00.065Z,13.93
2018-06-25T05:36:29.218Z,17.23
2018-06-25T05:38:58.321Z,15.00
2018-06-25T05:41:27.433Z,15.57
2018-06-25T05:43:56.574Z,14.53
2018-06-25T05:46:25.746Z,18.63
2018-06-25T05:48:55.218Z,16.80
2018-06-25T05:51:24.321Z,18.87
2018-06-25T05:53:56.758Z,23.23
2018-06-25T05:56:25.885Z,24.17
2018-06-25T05:58:55.518Z,24.70
2018-06-25T06:01:24.694Z,24.03
2018-06-25T06:03:53.813Z,27.07
2018-06-25T06:06:23.293Z,26.17
2018-06-25T06:08:52.427Z,29.23
2018-06-25T06:11:21.854Z,30.30
2018-06-25T06:13:51.063Z,26.67
2018-06-25T06:16:20.193Z,24.77
2018-06-25T06:18:49.421Z,25.10
2018-06-25T06:21:18.814Z,24.37
2018-06-25T06:23:47.941Z,25.00
2018-06-25T06:26:17.064Z,25.93
2018-06-25T06:28:46.185Z,23.43
2018-06-25T06:31:15.314Z,23.67
2018-06-25T06:33:44.436Z,24.37
2018-06-25T06:36:13.549Z,26.80
2018-06-25T06:38:42.980Z,23.53
2018-06-25T06:41:12.077Z,22.57
2018-06-25T06:43:41.206Z,20.70
2018-06-25T06:46:10.356Z,22.90
2018-06-25T06:48:39.507Z,20.67
2018-06-25T06:51:08.653Z,19.60
2018-06-25T06:53:37.781Z,22.70
2018-06-25T06:56:06.929Z,24.73
2018-06-25T06:58:36.077Z,27.73
2018-06-25T07:01:05.224Z,23.37
2018-06-25T07:03:34.346Z,23.27
2018-06-25T07:06:03.498Z,22.37
2018-06-25T07:08:32.644Z,20.67
2018-06-25T07:11:01.806Z,24.30
2018-06-25T07:13:30.910Z,21.40
2018-06-25T07:16:00.033Z,22.90
2018-06-25T07:18:29.134Z,20.87
2018-06-25T07:20:58.265Z,20.73
2018-06-25T07:23:27.385Z,19.87
2018-06-25T07:25:56.534Z,20.37
2018-06-25T07:28:25.658Z,18.87
2018-06-25T07:30:54.815Z,22.13
2018-06-25T07:33:23.997Z,17.90
2018-06-25T07:35:53.122Z,18.27
2018-06-25T07:38:22.265Z,18.50
2018-06-25T07:40:51.377Z,19.57
2018-06-25T07:43:20.481Z,16.30
2018-06-25T07:45:49.605Z,15.13
2018-06-25T07:48:18.704Z,15.23
2018-06-25T07:50:47.874Z,14.60
2018-06-25T07:53:16.997Z,13.77
2018-06-25T07:55:46.081Z,15.87
2018-06-25T07:58:15.205Z,17.83
2018-06-25T08:00:44.333Z,15.27
2018-06-25T08:03:13.448Z,16.47
2018-06-25T08:05:42.559Z,17.60
2018-06-25T08:08:11.858Z,15.23
2018-06-25T08:10:41.022Z,16.13
2018-06-25T08:13:10.141Z,13.23
2018-06-25T08:15:39.244Z,14.07
2018-06-25T08:18:08.336Z,14.93
2018-06-25T08:20:37.486Z,12.97
2018-06-25T08:23:06.602Z,15.23
2018-06-25T08:25:35.702Z,14.13
2018-06-25T08:28:04.849Z,13.30
2018-06-25T08:30:33.981Z,15.67
2018-06-25T08:33:03.162Z,15.20
2018-06-25T08:35:32.271Z,14.90
2018-06-25T08:38:01.401Z,13.80
2018-06-25T08:40:30.521Z,12.73
2018-06-25T08:42:59.669Z,14.47
2018-06-25T08:45:28.818Z,14.67
2018-06-25T08:47:57.981Z,14.67
2018-06-25T08:50:27.117Z,13.60
2018-06-25T08:52:56.247Z,14.47
2018-06-25T08:55:25.386Z,13.10
2018-06-25T08:57:54.533Z,12.97
2018-06-25T09:00:23.617Z,12.57
2018-06-25T09:02:52.740Z,14.50
2018-06-25T09:05:21.843Z,13.30
2018-06-25T09:07:50.958Z,14.20
2018-06-25T09:10:20.089Z,13.03
2018-06-25T09:12:49.222Z,11.53
2018-06-25T09:15:18.385Z,10.60
2018-06-25T09:17:47.450Z,12.23
2018-06-25T09:20:16.565Z,11.23
2018-06-25T09:22:45.697Z,13.30
2018-06-25T09:25:14.830Z,13.40
2018-06-25T09:27:48.965Z,11.90
2018-06-25T09:30:19.329Z,12.17
2018-06-25T09:32:48.476Z,16.47
2018-06-25T09:35:17.611Z,13.70
2018-06-25T09:37:46.696Z,12.67
2018-06-25T09:40:15.861Z,12.37
2018-06-25T09:42:44.958Z,13.43
2018-06-25T09:45:14.086Z,14.37
2018-06-25T09:47:43.201Z,12.93
2018-06-25T09:50:12.333Z,13.83
2018-06-25T09:52:41.481Z,18.40
2018-06-25T09:55:10.623Z,12.93
2018-06-25T09:57:39.713Z,14.27
2018-06-25T10:00:08.845Z,14.07
2018-06-25T10:02:37.933Z,11.87
2018-06-25T10:05:07.062Z,11.90
2018-06-25T10:07:36.170Z,13.40
2018-06-25T10:10:05.248Z,13.53
2018-06-25T10:12:34.359Z,11.13
2018-06-25T10:15:03.522Z,12.53
2018-06-25T10:17:32.646Z,12.60
2018-06-25T10:20:01.750Z,13.33
2018-06-25T10:22:30.866Z,13.50
2018-06-25T10:24:59.993Z,12.20
2018-06-25T10:27:29.094Z,11.73
2018-06-25T10:29:58.221Z,11.00
2018-06-25T10:32:27.333Z,14.33
2018-06-25T10:34:56.577Z,12.13
2018-06-25T10:37:25.710Z,11.40
2018-06-25T10:39:54.809Z,13.93
2018-06-25T10:42:24.024Z,12.10
2018-06-25T10:44:53.363Z,15.10
2018-06-25T10:47:22.470Z,12.60
2018-06-25T10:49:51.601Z,12.20
2018-06-25T10:52:20.726Z,13.33
2018-06-25T10:54:49.861Z,12.67
2018-06-25T10:57:18.989Z,14.10
2018-06-25T10:59:48.196Z,15.30
2018-06-25T11:02:17.202Z,13.40
2018-06-25T11:04:46.311Z,13.37
2018-06-25T11:07:15.532Z,14.97
2018-06-25T11:09:44.543Z,13.13
2018-06-25T11:12:13.665Z,13.30
2018-06-25T11:14:42.818Z,12.30
2018-06-25T11:17:11.930Z,11.40
2018-06-25T11:19:41.067Z,11.43
2018-06-25T11:22:10.185Z,13.33
2018-06-25T11:24:39.298Z,16.27
2018-06-25T11:27:08.534Z,17.43
2018-06-25T11:29:37.550Z,15.27
2018-06-25T11:32:06.673Z,12.93
2018-06-25T11:34:35.800Z,15.07
2018-06-25T11:37:04.974Z,14.00
2018-06-25T11:39:34.086Z,12.73
2018-06-25T11:42:03.215Z,12.00
2018-06-25T11:44:32.330Z,14.13
2018-06-25T11:47:01.429Z,13.00
2018-06-25T11:49:30.529Z,12.17
2018-06-25T11:51:59.630Z,15.03
2018-06-25T11:54:28.747Z,10.20
2018-06-25T11:56:57.848Z,17.17
2018-06-25T11:59:27.029Z,13.70
2018-06-25T12:01:56.215Z,14.90
2018-06-25T12:04:25.264Z,17.23
2018-06-25T12:06:54.365Z,14.67
2018-06-25T12:09:23.487Z,12.37
2018-06-25T12:11:52.583Z,13.77
2018-06-25T12:14:21.717Z,19.57
2018-06-25T12:16:50.829Z,21.53
2018-06-25T12:19:19.967Z,22.43
2018-06-25T12:21:49.065Z,19.03
2018-06-25T12:24:18.165Z,23.77
2018-06-25T12:26:47.261Z,22.93
2018-06-25T12:29:16.365Z,27.77
2018-06-25T12:31:45.478Z,24.93
2018-06-25T12:34:14.869Z,26.70
2018-06-25T12:36:44.050Z,26.57
2018-06-25T12:39:13.157Z,26.23
2018-06-25T12:41:42.282Z,24.63
2018-06-25T12:44:11.421Z,26.50
2018-06-25T12:46:40.526Z,27.07
2018-06-25T12:49:09.654Z,25.20
2018-06-25T12:51:38.785Z,26.20
2018-06-25T12:54:07.946Z,25.43
2018-06-25T12:56:37.045Z,23.63
2018-06-25T12:59:06.169Z,20.53
2018-06-25T13:01:35.333Z,23.10
2018-06-25T13:04:04.396Z,19.70
2018-06-25T13:06:33.517Z,27.83
2018-06-25T13:09:02.699Z,22.70
2018-06-25T13:11:31.878Z,23.33
2018-06-25T13:14:00.985Z,24.23
2018-06-25T13:16:30.124Z,20.47
2018-06-25T13:18:59.253Z,22.77
2018-06-25T13:21:28.398Z,22.27
2018-06-25T13:23:57.593Z,20.60
2018-06-25T13:26:26.738Z,24.77
2018-06-25T13:28:55.897Z,22.70
2018-06-25T13:31:25.806Z,19.57
2018-06-25T13:33:54.983Z,18.87
2018-06-25T13:36:24.106Z,20.33
2018-06-25T13:38:53.225Z,20.23
2018-06-25T13:41:22.382Z,22.53
2018-06-25T13:43:51.489Z,23.43
2018-06-25T13:46:20.601Z,25.90
2018-06-25T13:48:49.721Z,21.70
2018-06-25T13:51:18.994Z,20.53
2018-06-25T13:53:48.217Z,18.13
2018-06-25T13:56:17.339Z,18.00
2018-06-25T13:58:46.477Z,19.53
2018-06-25T14:01:15.615Z,16.40
2018-06-25T14:03:44.753Z,18.83
2018-06-25T14:06:13.845Z,17.27
2018-06-25T14:08:42.977Z,20.60
2018-06-25T14:11:12.393Z,21.57
2018-06-25T14:13:41.505Z,23.13
2018-06-25T14:16:10.645Z,23.70
2018-06-25T14:18:39.789Z,27.33
2018-06-25T14:21:08.966Z,29.83
2018-06-25T14:23:41.880Z,26.50
2018-06-25T14:26:11.121Z,27.63
2018-06-25T14:28:40.233Z,24.60
2018-06-25T14:31:14.781Z,23.67
2018-06-25T14:33:48.314Z,23.83
2018-06-25T14:36:17.493Z,26.27
2018-06-25T14:38:46.626Z,24.47
2018-06-25T14:41:15.749Z,26.30
2018-06-25T14:43:44.852Z,24.73
2018-06-25T14:46:13.997Z,23.17
2018-06-25T14:48:43.185Z,23.90
2018-06-25T14:51:12.318Z,24.90
2018-06-25T14:53:41.445Z,24.00
2018-06-25T14:56:10.554Z,22.00
2018-06-25T14:58:39.685Z,20.97
2018-06-25T15:01:08.781Z,21.53
2018-06-25T15:03:39.149Z,23.17
2018-06-25T15:06:08.273Z,20.87
2018-06-25T15:08:37.369Z,21.63
2018-06-25T15:11:06.781Z,19.80
2018-06-25T15:13:35.881Z,17.60
2018-06-25T15:16:05.270Z,20.77
2018-06-25T15:18:34.362Z,18.63
2018-06-25T15:21:03.496Z,17.37
2018-06-25T15:23:31.612Z,16.67
2018-06-25T15:26:01.574Z,19.27
2018-06-25T15:28:30.694Z,11.43
2018-06-25T15:30:59.797Z,13.83
2018-06-25T15:33:28.913Z,10.33
2018-06-25T15:35:58.069Z,12.57
2018-06-25T15:38:28.261Z,14.10
2018-06-25T15:40:57.653Z,9.80
2018-06-25T15:43:26.737Z,8.53
2018-06-25T15:45:55.845Z,9.13
2018-06-25T15:48:24.938Z,7.93
2018-06-25T15:50:54.052Z,7.43
2018-06-25T15:53:23.150Z,9.27
2018-06-25T15:55:52.288Z,7.97
2018-06-25T15:58:21.366Z,6.23
2018-06-25T16:00:50.449Z,5.57
2018-06-25T16:03:19.570Z,8.03
2018-06-25T16:05:48.674Z,10.00
2018-06-25T16:08:17.769Z,8.17
2018-06-25T16:10:46.856Z,9.67
2018-06-25T16:13:16.104Z,6.43
2018-06-25T16:15:45.266Z,6.63
2018-06-25T16:18:14.393Z,4.90
2018-06-25T16:20:43.577Z,6.60
2018-06-25T16:23:12.741Z,6.97
2018-06-25T16:25:41.878Z,5.43
2018-06-25T16:28:11.013Z,6.40
2018-06-25T16:30:40.122Z,4.93
2018-06-25T16:33:09.213Z,6.03
2018-06-25T16:35:38.419Z,6.73
2018-06-25T16:38:07.573Z,5.17
2018-06-25T16:40:36.720Z,7.87
2018-06-25T16:43:07.829Z,7.33
2018-06-25T16:45:36.949Z,5.47
2018-06-25T16:48:06.102Z,4.30
2018-06-25T16:50:35.207Z,9.37
2018-06-25T16:53:04.321Z,8.03
2018-06-25T16:55:33.469Z,5.73
2018-06-25T16:58:02.537Z,6.23
2018-06-25T17:00:31.698Z,6.03
2018-06-25T17:03:00.793Z,5.53
2018-06-25T17:05:29.917Z,5.97
2018-06-25T17:07:59.059Z,5.67
2018-06-25T17:10:28.190Z,6.50
2018-06-25T17:12:57.418Z,7.77
2018-06-25T17:15:26.542Z,6.57
2018-06-25T17:17:55.690Z,6.13
2018-06-25T17:20:24.868Z,9.67
2018-06-25T17:22:53.966Z,7.33
2018-06-25T17:25:23.117Z,7.30
2018-06-25T17:27:52.293Z,5.27
2018-06-25T17:30:21.397Z,5.97
2018-06-25T17:32:50.515Z,4.83
2018-06-25T17:35:19.601Z,6.07
2018-06-25T17:37:48.745Z,4.90
2018-06-25T17:40:18.038Z,8.67
2018-06-25T17:42:47.289Z,8.00
2018-06-25T17:45:16.393Z,11.10
2018-06-25T17:47:45.524Z,8.17
2018-06-25T17:50:14.649Z,9.70
2018-06-25T17:52:43.760Z,8.57
2018-06-25T17:55:12.949Z,7.23
2018-06-25T17:57:42.046Z,8.17
2018-06-25T18:00:11.189Z,11.17
2018-06-25T18:02:40.364Z,9.07
2018-06-25T18:05:09.461Z,7.77
2018-06-25T18:07:38.585Z,6.47
2018-06-25T18:10:07.734Z,10.43
2018-06-25T18:12:36.853Z,6.93
2018-06-25T18:15:06.186Z,9.27
2018-06-25T18:17:35.345Z,9.87
2018-06-25T18:20:04.841Z,9.73
2018-06-25T18:22:33.969Z,11.13
2018-06-25T18:25:03.217Z,6.43
2018-06-25T18:27:32.436Z,6.97
2018-06-25T18:30:02.652Z,6.80
2018-06-25T18:32:31.753Z,6.83
2018-06-25T18:35:00.861Z,8.50
2018-06-25T18:37:29.973Z,4.77
2018-06-25T18:39:59.090Z,9.57
2018-06-25T18:42:28.205Z,8.70
2018-06-25T18:44:57.319Z,6.70
2018-06-25T18:47:26.493Z,9.13
2018-06-25T18:49:55.566Z,6.40
2018-06-25T18:52:25.095Z,7.37
2018-06-25T18:54:54.374Z,8.40
2018-06-25T18:57:22.684Z,6.47
2018-06-25T18:59:51.709Z,6.73
2018-06-25T19:02:20.813Z,6.93
2018-06-25T19:04:49.922Z,6.43
2018-06-25T19:07:20.129Z,5.13
2018-06-25T19:09:49.539Z,7.93
2018-06-25T19:12:18.669Z,6.70
2018-06-25T19:14:47.825Z,7.80
2018-06-25T19:17:17.018Z,6.10
2018-06-25T19:19:46.217Z,7.27
2018-06-25T19:22:15.579Z,6.20
2018-06-25T19:24:44.710Z,7.20
2018-06-25T19:27:13.821Z,8.83
2018-06-25T19:29:42.980Z,7.80
2018-06-25T19:32:12.082Z,7.97
2018-06-25T19:34:41.400Z,8.87
2018-06-25T19:37:10.783Z,8.93
2018-06-25T19:39:40.370Z,6.50
2018-06-25T19:42:09.533Z,6.17
2018-06-25T19:44:39.198Z,6.43
2018-06-25T19:47:08.434Z,6.43
2018-06-25T19:49:37.568Z,5.53
2018-06-25T19:52:06.682Z,8.13
2018-06-25T19:54:36.329Z,9.83
2018-06-25T19:57:05.449Z,8.13
2018-06-25T19:59:34.614Z,6.30
2018-06-25T20:02:03.701Z,9.43
2018-06-25T20:04:32.874Z,6.87
2018-06-25T20:07:02.057Z,8.63
2018-06-25T20:09:31.153Z,8.53
2018-06-25T20:12:00.529Z,9.80
2018-06-25T20:14:29.651Z,6.07
2018-06-25T20:16:58.749Z,12.17
2018-06-25T20:19:27.872Z,11.70
2018-06-25T20:21:59.289Z,9.03
2018-06-25T20:24:28.397Z,6.93
2018-06-25T20:26:57.498Z,10.23
2018-06-25T20:29:26.614Z,5.53
2018-06-25T20:31:55.798Z,6.63
2018-06-25T20:34:25.385Z,6.53
2018-06-25T20:36:54.786Z,7.77
2018-06-25T20:39:23.893Z,7.27
2018-06-25T20:41:53.007Z,5.17
2018-06-25T20:44:24.141Z,8.27
2018-06-25T20:46:53.386Z,6.33
2018-06-25T20:49:22.444Z,7.07
2018-06-25T20:51:57.497Z,12.13
2018-06-25T20:54:27.409Z,7.10
2018-06-25T20:56:56.590Z,11.07
2018-06-25T20:59:25.667Z,6.17
2018-06-25T21:01:54.805Z,7.20
2018-06-25T21:04:23.914Z,8.90
2018-06-25T21:06:53.002Z,8.93
2018-06-25T21:09:22.128Z,9.00
2018-06-25T21:11:51.293Z,8.67
2018-06-25T21:14:20.413Z,8.87
2018-06-25T21:16:49.558Z,8.87
2018-06-25T21:19:18.726Z,10.50
2018-06-25T21:21:47.862Z,7.50
2018-06-25T21:24:17.028Z,7.37
2018-06-25T21:26:46.101Z,8.07
2018-06-25T21:29:15.238Z,11.20
2018-06-25T21:31:45.013Z,9.67
2018-06-25T21:34:14.185Z,9.13
2018-06-25T21:36:43.360Z,9.03
2018-06-25T21:39:12.921Z,7.57
2018-06-25T21:41:42.069Z,8.27
2018-06-25T21:44:11.221Z,7.83
2018-06-25T21:46:40.322Z,11.37
2018-06-25T21:49:09.458Z,10.30
2018-06-25T21:51:38.645Z,8.83
2018-06-25T21:54:07.745Z,12.23
2018-06-25T21:56:36.894Z,8.33
2018-06-25T21:59:05.989Z,8.63
2018-06-25T22:01:35.190Z,10.33
2018-06-25T22:04:04.341Z,10.13
2018-06-25T22:06:33.470Z,8.20
2018-06-25T22:09:02.561Z,8.23
2018-06-25T22:11:31.666Z,8.00
2018-06-25T22:14:00.780Z,10.97
2018-06-25T22:16:29.865Z,9.33
2018-06-25T22:18:59.006Z,7.13
2018-06-25T22:21:28.110Z,8.50
2018-06-25T22:23:57.221Z,8.83
2018-06-25T22:26:26.338Z,8.77
2018-06-25T22:28:55.441Z,9.03
2018-06-25T22:31:24.637Z,10.90
2018-06-25T22:33:53.746Z,11.33
2018-06-25T22:36:22.997Z,10.20
2018-06-25T22:38:52.154Z,8.53
2018-06-25T22:41:22.149Z,8.33
2018-06-25T22:43:51.530Z,8.87
2018-06-25T22:46:20.665Z,9.53
2018-06-25T22:48:49.758Z,8.43
2018-06-25T22:51:18.897Z,6.97
2018-06-25T22:53:48.005Z,9.57
2018-06-25T22:56:17.129Z,10.07
2018-06-25T22:58:46.285Z,7.03
2018-06-25T23:01:15.635Z,8.27
2018-06-25T23:03:45.631Z,9.87
2018-06-25T23:06:14.693Z,8.33
2018-06-25T23:08:43.866Z,10.27
2018-06-25T23:11:13.210Z,6.50
2018-06-25T23:13:42.321Z,7.30
2018-06-25T23:16:11.417Z,10.37
2018-06-25T23:18:40.531Z,9.97
2018-06-25T23:21:09.649Z,11.47
2018-06-25T23:23:38.746Z,12.97
2018-06-25T23:26:08.242Z,10.43
2018-06-25T23:28:37.337Z,7.83
2018-06-25T23:31:06.457Z,6.33
2018-06-25T23:33:35.582Z,6.93
2018-06-25T23:36:04.741Z,7.00
2018-06-25T23:38:33.877Z,8.37
2018-06-25T23:41:02.966Z,8.23
2018-06-25T23:43:32.130Z,7.63
2018-06-25T23:46:01.225Z,8.87
2018-06-25T23:48:30.586Z,8.87
2018-06-25T23:50:59.694Z,8.27
2018-06-25T23:53:28.800Z,8.10
2018-06-25T23:55:58.022Z,9.10
2018-06-25T23:58:27.117Z,9.47
